Rankings de siempre
Mejores tiempos personales válidos de equipo a través de todos los eventos y temporadas. Cada equipo aparece una vez por división.
Busca por nombre y abre la página donde está clasificado este récord de división.
134,451 equipos clasificados
| Pos. | Pos. AG | Equipo | Nacionalidad | Categoría de edad | TiempoMejor tiempo | Diferencia |
|---|---|---|---|---|---|---|
| 126701 | #15680 | Katharine Elliot & Stuart TurnbullGBR · X 35-39 · AG #15680 | GBR | X 35-39 | 1:50:59 | +61:46 |
| 126702 | #16970 | Fayme Mercado & Miguel MercadoAUS · X 40-44 · AG #16970 | AUS | X 40-44 | 1:50:59 | +61:46 |
| 126703 | #16971 | Jessica Dixon & David DixonUSA · X 40-44 · AG #16971 | USA | X 40-44 | 1:51:00 | +61:47 |
| 126704 | #15681 | Emma Seddon & Joe ProvonchaGBR · X 35-39 · AG #15681 | GBR | X 35-39 | 1:51:00 | +61:47 |
| 126705 | #44615 | Salina Mcneely & Cody McneelyUSA · X 30-34 · AG #44615 | USA | X 30-34 | 1:51:00 | +61:47 |
| 126706 | #15682 | Emily Rebolledo & Alberto RebolledoMEX · X 35-39 · AG #15682 | MEX | X 35-39 | 1:51:00 | +61:47 |
| 126707 | -- | Lucy Ballingall & Prathip DevanX XU29 | -- | X XU29 | 1:51:00 | +61:47 |
| 126708 | #806 | Pia Luyer & Michael HingerAUT · X 16-29 · AG #806 | AUT | X 16-29 | 1:51:00 | +61:47 |
| 126709 | -- | Aahana Chatterjee & Kevin ZhaoUSA · X XU29 | USA | X XU29 | 1:51:00 | +61:47 |
| 126710 | #16972 | Alan Pryde & Robyn PrydeGBR · X 40-44 · AG #16972 | GBR | X 40-44 | 1:51:00 | +61:47 |
| 126711 | #15683 | 庆萼 陈 & 岸 张CHN · X 35-39 · AG #15683 | CHN | X 35-39 | 1:51:00 | +61:47 |
| 126712 | #44616 | Celia O'Kane & Warren TannerNZL · X 30-34 · AG #44616 | NZL | X 30-34 | 1:51:01 | +61:48 |
| 126713 | #8613 | Mariana Foster & Dominic GasparichNZL · X 16-24 · AG #8613 | NZL | X 16-24 | 1:51:01 | +61:48 |
| 126714 | #2851 | Mark Pendreich & Nicky TullyAUS · X 50-54 · AG #2851 | AUS | X 50-54 | 1:51:01 | +61:48 |
| 126715 | #4202 | Philippe Bermejo & Julie BermejoFRA · X 45-49 · AG #4202 | FRA | X 45-49 | 1:51:01 | +61:48 |
| 126716 | #8614 | Bongolethu Mlenzana & Philani KubhekaRSA · X 16-24 · AG #8614 | RSA | X 16-24 | 1:51:01 | +61:48 |
| 126717 | #44617 | Ryan Formosa & Desiree Alfrida FormosaMLT · X 30-34 · AG #44617 | MLT | X 30-34 | 1:51:01 | +61:48 |
| 126718 | -- | Marie-Céline Guigue & Nathan Djian-MartinFRA · X XU29 | FRA | X XU29 | 1:51:01 | +61:48 |
| 126719 | #15684 | Bryan Waldron & Helen TillemUSA · X 35-39 · AG #15684 | USA | X 35-39 | 1:51:01 | +61:48 |
| 126720 | #4203 | Dave Noda & Deanna KolliasUSA · X 45-49 · AG #4203 | USA | X 45-49 | 1:51:02 | +61:49 |
| 126721 | #19374 | Mo Afroz & Stephanie AfrozX 25-29 · AG #19374 | -- | X 25-29 | 1:51:02 | +61:49 |
| 126722 | #16973 | Valentina Schäfer & Achim SchäferGER · X 40-44 · AG #16973 | GER | X 40-44 | 1:51:02 | +61:49 |
| 126723 | #44618 | Leigh Davies & Sian ValentineGBR · X 30-34 · AG #44618 | GBR | X 30-34 | 1:51:02 | +61:49 |
| 126724 | #44619 | Sapphire Spree & Russell RyderGBR · X 30-34 · AG #44619 | GBR | X 30-34 | 1:51:02 | +61:49 |
| 126725 | #16974 | Charlène Thiely & Henri JanierFRA · X 40-44 · AG #16974 | FRA | X 40-44 | 1:51:02 | +61:49 |
Página 5,069 de 5,379